Time;durP1;ratioP1;P1;durP2;ratioP2;P2;SDS_P1;SDS_P2;PMS_P1;PMS_P2;Temp;Humidity;BMP_temperature;BMP_pressure;BME280_temperature;BME280_humidity;BME280_pressure;Samples;Min_cycle;Max_cycle;Signal;HPM_P1;HPM_P2
2022/09/02 00:01:24;;;;;;;2.90;1.73;;;14.90;1.00;;;;;;5096739;28;20490;-75
2022/09/02 00:03:55;;;;;;;1.90;1.80;;;14.90;99.90;;;;;;5096496;28;20475;-75
2022/09/02 00:06:22;;;;;;;2.77;1.77;;;15.00;99.90;;;;;;5096841;28;20892;-75
2022/09/02 00:08:49;;;;;;;5.20;1.63;;;15.00;99.90;;;;;;5096770;28;20447;-75
2022/09/02 00:11:18;;;;;;;4.87;1.77;;;14.90;99.90;;;;;;5096849;28;20439;-75
2022/09/02 00:13:46;;;;;;;1.67;1.43;;;15.00;1.00;;;;;;5096778;28;20839;-75
2022/09/02 00:16:13;;;;;;;1.80;1.70;;;15.00;99.90;;;;;;5096444;28;21030;-76
2022/09/02 00:18:41;;;;;;;3.63;1.43;;;15.00;99.90;;;;;;5096697;28;20482;-75
2022/09/02 00:21:12;;;;;;;3.90;1.83;;;15.00;99.90;;;;;;5096135;28;20450;-75
2022/09/02 00:23:40;;;;;;;1.93;1.83;;;14.90;99.90;;;;;;5096299;28;20525;-76
2022/09/02 00:26:07;;;;;;;2.50;1.60;;;14.90;99.90;;;;;;5095941;28;20452;-75
2022/09/02 00:28:34;;;;;;;1.60;1.40;;;14.90;1.00;;;;;;5096394;28;20456;-76
2022/09/02 00:31:01;;;;;;;2.23;1.40;;;14.90;1.00;;;;;;5096286;28;20805;-76
2022/09/02 00:33:30;;;;;;;1.80;1.70;;;14.90;1.00;;;;;;5095419;28;20467;-76
2022/09/02 00:35:59;;;;;;;3.30;2.10;;;14.90;1.00;;;;;;5096072;28;20812;-76
2022/09/02 00:38:28;;;;;;;3.20;1.80;;;14.90;1.00;;;;;;5096153;28;20538;-76
2022/09/02 00:40:55;;;;;;;2.60;1.63;;;14.90;1.00;;;;;;5096981;28;20446;-76
2022/09/02 00:43:37;;;;;;;1.70;1.53;;;14.90;1.00;;;;;;5096202;28;20464;-75
2022/09/02 00:46:04;;;;;;;1.93;1.73;;;14.90;1.00;;;;;;5096407;28;20435;-75
2022/09/02 00:48:31;;;;;;;1.90;1.80;;;15.00;1.00;;;;;;5096443;28;20451;-76
2022/09/02 00:50:58;;;;;;;1.80;1.70;;;14.90;1.00;;;;;;5096319;28;20443;-75
2022/09/02 00:53:26;;;;;;;2.00;1.90;;;14.90;99.90;;;;;;5096044;28;20459;-76
2022/09/02 00:55:53;;;;;;;2.70;1.70;;;14.90;1.00;;;;;;5097187;28;20468;-76
2022/09/02 00:58:24;;;;;;;1.63;1.53;;;14.90;1.00;;;;;;5095820;28;20444;-77
2022/09/02 01:00:56;;;;;;;2.27;1.87;;;14.90;1.00;;;;;;5095371;28;20424;-76
2022/09/02 01:03:25;;;;;;;2.27;1.33;;;14.80;1.00;;;;;;5095755;28;20484;-77
2022/09/02 01:05:54;;;;;;;1.33;1.23;;;14.90;1.00;;;;;;5095816;28;20448;-77
2022/09/02 01:08:24;;;;;;;1.47;1.37;;;14.90;1.00;;;;;;5095578;28;20443;-77
2022/09/02 01:10:54;;;;;;;2.50;1.57;;;14.80;1.00;;;;;;5095927;28;20531;-76
2022/09/02 01:13:24;;;;;;;3.73;1.57;;;14.80;1.00;;;;;;5095494;28;20466;-77
2022/09/02 01:15:54;;;;;;;3.63;1.37;;;14.80;1.00;;;;;;5095463;28;20440;-75
2022/09/02 01:18:24;;;;;;;1.90;1.80;;;14.80;1.00;;;;;;5094895;28;20919;-75
2022/09/02 01:20:51;;;;;;;2.90;1.60;;;14.80;1.00;;;;;;5094999;28;20440;-76
2022/09/02 01:23:19;;;;;;;2.40;2.20;;;14.80;1.00;;;;;;5095144;28;20512;-75
2022/09/02 01:25:48;;;;;;;1.73;1.37;;;14.70;1.00;;;;;;5095356;28;20463;-75
2022/09/02 01:28:17;;;;;;;3.20;1.73;;;14.70;1.00;;;;;;5094804;28;20937;-76
2022/09/02 01:30:47;;;;;;;2.00;1.80;;;14.70;99.90;;;;;;5095071;28;20451;-76
2022/09/02 01:33:14;;;;;;;1.97;1.70;;;14.60;37.00;;;;;;5095287;28;20464;-76
2022/09/02 01:35:41;;;;;;;1.67;1.50;;;14.70;99.90;;;;;;5095318;28;20448;-75
2022/09/02 01:38:09;;;;;;;1.73;1.50;;;14.60;99.90;;;;;;5094800;28;20947;-76
2022/09/02 01:40:37;;;;;;;1.93;1.77;;;14.60;99.90;;;;;;5095355;28;20444;-77
2022/09/02 01:43:08;;;;;;;2.10;2.00;;;14.60;99.90;;;;;;5094771;28;20495;-77
2022/09/02 01:45:35;;;;;;;1.70;1.43;;;14.60;99.90;;;;;;5102178;28;20458;-79
2022/09/02 01:48:03;;;;;;;3.00;1.63;;;14.60;99.90;;;;;;5101974;28;20443;-78
2022/09/02 01:50:30;;;;;;;1.60;1.50;;;14.60;1.00;;;;;;5107212;28;20522;-81
2022/09/02 01:52:57;;;;;;;4.27;2.00;;;14.50;1.00;;;;;;5109119;28;20468;-79
2022/09/02 01:55:24;;;;;;;1.90;1.80;;;14.50;1.00;;;;;;5102208;28;20451;-80
2022/09/02 01:57:52;;;;;;;3.80;1.67;;;14.40;1.00;;;;;;5098528;28;20450;-80
2022/09/02 02:00:19;;;;;;;3.53;2.07;;;14.50;1.00;;;;;;5096711;28;20444;-80
2022/09/02 02:02:46;;;;;;;1.70;1.57;;;14.50;1.00;;;;;;5096290;28;20521;-80
2022/09/02 02:05:14;;;;;;;2.60;1.73;;;14.50;1.00;;;;;;5098392;28;20435;-80
2022/09/02 02:07:41;;;;;;;2.20;2.00;;;14.50;1.00;;;;;;5097526;28;20452;-80
2022/09/02 02:10:10;;;;;;;2.77;2.10;;;14.40;1.00;;;;;;5096305;28;20924;-80
2022/09/02 02:12:37;;;;;;;3.43;2.00;;;14.50;80.60;;;;;;5094996;28;20440;-80
2022/09/02 02:15:10;;;;;;;2.20;2.00;;;14.40;59.70;;;;;;5096713;28;20444;-80
2022/09/02 02:17:37;;;;;;;2.30;2.10;;;14.50;81.40;;;;;;5096694;28;20432;-80
2022/09/02 02:20:05;;;;;;;2.60;2.40;;;14.40;1.00;;;;;;5095058;28;20497;-79
2022/09/02 02:22:32;;;;;;;1.83;1.73;;;14.30;70.20;;;;;;5095292;28;20457;-79
2022/09/02 02:24:59;;;;;;;2.13;2.03;;;14.30;75.30;;;;;;5094978;28;20458;-79
2022/09/02 02:27:26;;;;;;;1.93;1.80;;;14.40;99.90;;;;;;5095034;28;20963;-80
2022/09/02 02:29:53;;;;;;;2.97;1.63;;;14.30;99.90;;;;;;5094839;28;20457;-80
2022/09/02 02:32:21;;;;;;;2.20;1.87;;;14.30;99.90;;;;;;5094855;28;20501;-80
2022/09/02 02:34:48;;;;;;;2.43;2.03;;;14.30;99.90;;;;;;5106466;28;20443;-80
2022/09/02 02:37:15;;;;;;;1.67;1.57;;;14.30;64.90;;;;;;5107456;28;20444;-80
2022/09/02 02:39:42;;;;;;;4.50;1.80;;;14.20;99.90;;;;;;5102910;28;20561;-80
2022/09/02 02:42:10;;;;;;;2.40;2.20;;;14.20;99.90;;;;;;5101177;28;20483;-80
2022/09/02 02:44:38;;;;;;;2.10;2.00;;;14.10;99.90;;;;;;5112683;28;20478;-79
2022/09/02 02:47:06;;;;;;;3.33;2.30;;;14.20;99.90;;;;;;5112652;28;20458;-79
2022/09/02 02:49:38;;;;;;;1.90;1.70;;;14.10;99.90;;;;;;5112440;28;20511;-79
2022/09/02 02:52:04;;;;;;;2.90;2.00;;;14.10;99.90;;;;;;5112491;28;20421;-79
2022/09/02 02:54:31;;;;;;;5.70;2.00;;;14.10;99.90;;;;;;5109880;28;20448;-80
2022/09/02 02:56:58;;;;;;;2.23;1.70;;;14.10;99.90;;;;;;5103414;28;20448;-80
2022/09/02 02:59:25;;;;;;;2.20;2.00;;;14.10;99.90;;;;;;5100514;28;20450;-80
2022/09/02 03:01:52;;;;;;;2.07;1.60;;;14.00;99.90;;;;;;5095802;28;20444;-80
2022/09/02 03:04:19;;;;;;;1.80;1.70;;;14.00;99.90;;;;;;5094850;28;20471;-80
2022/09/02 03:06:48;;;;;;;2.10;1.90;;;14.00;1.00;;;;;;5094860;28;20419;-80
2022/09/02 03:09:14;;;;;;;3.13;2.33;;;14.00;1.00;;;;;;5095007;28;20467;-79
2022/09/02 03:11:41;;;;;;;2.43;1.70;;;14.00;1.00;;;;;;5094625;28;20822;-80
2022/09/02 03:14:08;;;;;;;1.87;1.77;;;13.90;1.00;;;;;;5094624;28;20462;-81
2022/09/02 03:16:35;;;;;;;4.40;2.13;;;13.90;1.00;;;;;;5094553;28;20451;-80
2022/09/02 03:19:02;;;;;;;6.40;1.73;;;13.80;1.00;;;;;;5094661;28;20455;-80
2022/09/02 03:21:29;;;;;;;2.83;1.90;;;13.80;1.00;;;;;;5094390;28;20444;-81
2022/09/02 03:23:57;;;;;;;3.13;2.23;;;13.80;1.00;;;;;;5095532;28;20843;-80
2022/09/02 03:26:25;;;;;;;1.87;1.70;;;13.80;1.00;;;;;;5094323;28;20501;-80
2022/09/02 03:28:55;;;;;;;2.40;2.20;;;13.80;1.00;;;;;;5094619;28;20497;-80
2022/09/02 03:31:25;;;;;;;3.10;1.77;;;13.80;1.00;;;;;;5094222;28;20475;-80
2022/09/02 03:33:52;;;;;;;1.57;1.47;;;13.80;1.00;;;;;;5094358;28;20471;-80
2022/09/02 03:36:21;;;;;;;2.93;1.80;;;13.70;1.00;;;;;;5095361;28;20962;-79
2022/09/02 03:38:47;;;;;;;2.87;2.07;;;13.60;1.00;;;;;;5096251;28;20493;-79
2022/09/02 03:41:15;;;;;;;2.37;2.10;;;13.60;1.00;;;;;;5096572;28;20448;-80
2022/09/02 03:43:42;;;;;;;5.53;1.80;;;13.70;1.00;;;;;;5095087;28;20486;-80
2022/09/02 03:46:09;;;;;;;2.97;2.77;;;13.70;1.00;;;;;;5097466;28;20444;-80
2022/09/02 03:48:36;;;;;;;1.90;1.70;;;13.70;1.00;;;;;;5093303;28;20441;-80
2022/09/02 03:51:04;;;;;;;1.57;1.47;;;13.70;1.00;;;;;;5095218;28;20550;-79
2022/09/02 03:53:31;;;;;;;2.10;2.00;;;13.60;1.00;;;;;;5100174;28;20474;-79
2022/09/02 03:55:58;;;;;;;2.00;1.90;;;13.60;1.00;;;;;;5099067;28;20448;-79
2022/09/02 03:58:26;;;;;;;2.40;2.20;;;13.60;1.00;;;;;;5100105;28;20456;-80
2022/09/02 04:00:54;;;;;;;2.17;1.97;;;13.50;1.00;;;;;;5096838;28;20452;-79
2022/09/02 04:03:21;;;;;;;2.43;2.23;;;13.60;1.00;;;;;;5107867;22;20495;-72
2022/09/02 04:05:49;;;;;;;3.17;1.93;;;13.60;1.00;;;;;;5092649;28;20870;-71
2022/09/02 04:08:16;;;;;;;2.13;1.93;;;13.60;1.00;;;;;;5093642;28;20448;-70
2022/09/02 04:10:43;;;;;;;4.00;1.73;;;13.50;1.00;;;;;;5096439;28;20547;-71
2022/09/02 04:13:10;;;;;;;1.70;1.60;;;13.50;1.00;;;;;;5096264;28;20456;-71
2022/09/02 04:15:41;;;;;;;2.37;2.17;;;13.50;1.00;;;;;;5096361;28;20818;-72
2022/09/02 04:18:08;;;;;;;2.13;1.97;;;13.50;1.00;;;;;;5096381;28;20502;-71
2022/09/02 04:20:38;;;;;;;3.93;2.10;;;13.50;1.00;;;;;;5096481;28;20444;-71
2022/09/02 04:23:05;;;;;;;2.53;1.80;;;13.60;1.00;;;;;;5096045;28;20511;-71
2022/09/02 04:25:32;;;;;;;2.43;2.00;;;13.40;1.00;;;;;;5095896;28;20454;-71
2022/09/02 04:27:59;;;;;;;2.33;2.13;;;13.50;1.00;;;;;;5095854;28;20547;-71
2022/09/02 04:30:26;;;;;;;3.13;2.20;;;13.50;1.00;;;;;;5096196;28;20807;-71
2022/09/02 04:32:54;;;;;;;6.87;2.10;;;13.60;1.00;;;;;;5095715;28;20440;-71
2022/09/02 04:35:21;;;;;;;2.33;1.90;;;13.50;1.00;;;;;;5095804;28;20451;-71
2022/09/02 04:37:48;;;;;;;2.07;1.97;;;13.60;1.00;;;;;;5096118;28;20450;-71
2022/09/02 04:40:15;;;;;;;2.53;2.33;;;13.60;1.00;;;;;;5096236;28;20506;-72
2022/09/02 04:42:42;;;;;;;5.77;2.47;;;13.60;1.00;;;;;;5095922;28;20562;-72
2022/09/02 04:45:10;;;;;;;2.03;1.87;;;13.60;1.00;;;;;;5095843;28;20467;-72
2022/09/02 04:47:37;;;;;;;2.60;2.40;;;13.60;1.00;;;;;;5095520;28;20940;-71
2022/09/02 04:50:06;;;;;;;5.97;2.60;;;13.60;1.00;;;;;;5096258;28;20857;-72
2022/09/02 04:52:33;;;;;;;2.40;2.20;;;13.60;1.00;;;;;;5096037;28;20947;-72
2022/09/02 04:55:00;;;;;;;2.17;2.07;;;13.60;1.00;;;;;;5095672;28;20827;-72
2022/09/02 04:57:26;;;;;;;4.33;2.00;;;13.60;1.00;;;;;;5095623;28;20489;-72
2022/09/02 04:59:53;;;;;;;3.30;2.20;;;13.70;1.00;;;;;;5095749;28;20452;-71
2022/09/02 05:02:20;;;;;;;3.57;2.10;;;13.70;1.00;;;;;;5095036;28;20448;-71
2022/09/02 05:04:46;;;;;;;3.30;3.00;;;13.70;1.00;;;;;;5095081;28;20869;-71
2022/09/02 05:07:14;;;;;;;4.03;2.33;;;13.70;1.00;;;;;;5095149;28;20981;-71
2022/09/02 05:09:41;;;;;;;2.60;2.00;;;13.70;1.00;;;;;;5095095;28;20436;-71
2022/09/02 05:12:08;;;;;;;6.03;3.27;;;13.70;1.00;;;;;;5095223;28;20558;-71
2022/09/02 05:14:35;;;;;;;2.60;2.40;;;13.70;1.00;;;;;;5094783;28;20546;-71
2022/09/02 05:17:03;;;;;;;2.20;2.00;;;13.70;1.00;;;;;;5095214;28;20455;-71
2022/09/02 05:19:30;;;;;;;2.77;2.57;;;13.80;1.00;;;;;;5095034;28;20447;-71
2022/09/02 05:21:58;;;;;;;2.43;2.23;;;13.70;1.00;;;;;;5095397;28;20447;-71
2022/09/02 05:24:26;;;;;;;2.30;2.07;;;13.70;1.00;;;;;;5095066;28;20484;-71
2022/09/02 05:26:53;;;;;;;4.90;2.57;;;13.60;1.00;;;;;;5095002;28;20869;-71
2022/09/02 05:29:21;;;;;;;2.70;2.50;;;13.60;1.00;;;;;;5094792;28;20463;-71
2022/09/02 05:31:48;;;;;;;2.90;2.70;;;13.60;1.00;;;;;;5094702;28;20448;-71
2022/09/02 05:34:16;;;;;;;7.33;3.43;;;13.70;1.00;;;;;;5094742;28;20471;-71
2022/09/02 05:36:43;;;;;;;2.37;2.17;;;13.80;1.00;;;;;;5094735;28;20816;-72
2022/09/02 05:39:10;;;;;;;3.57;2.70;;;13.70;1.00;;;;;;5094856;28;20439;-71
2022/09/02 05:41:38;;;;;;;3.73;2.50;;;13.70;1.00;;;;;;5094642;28;20444;-71
2022/09/02 05:44:06;;;;;;;4.70;2.53;;;13.70;1.00;;;;;;5094610;28;20495;-72
2022/09/02 05:46:34;;;;;;;7.13;2.70;;;13.80;1.00;;;;;;5094570;28;20819;-72
2022/09/02 05:49:07;;;;;;;3.73;3.03;;;13.70;1.00;;;;;;5094683;28;20451;-72
2022/09/02 05:51:39;;;;;;;11.90;2.93;;;13.90;1.00;;;;;;5094665;28;20424;-70
2022/09/02 05:54:07;;;;;;;13.50;4.37;;;13.90;1.00;;;;;;5094345;28;20509;-73
2022/09/02 05:56:34;;;;;;;35.63;11.03;;;13.90;1.00;;;;;;5094611;28;20489;-71
2022/09/02 05:59:02;;;;;;;2.90;2.70;;;14.00;1.00;;;;;;5094247;28;20443;-71
2022/09/02 06:01:29;;;;;;;3.30;3.00;;;13.90;1.00;;;;;;5094318;28;20484;-71
2022/09/02 06:03:56;;;;;;;6.37;3.30;;;13.90;1.00;;;;;;5093858;28;20519;-71
2022/09/02 06:06:23;;;;;;;4.67;2.70;;;14.00;1.00;;;;;;5094294;28;20505;-71
2022/09/02 06:08:50;;;;;;;18.33;4.37;;;14.10;1.00;;;;;;5094329;28;20443;-71
2022/09/02 06:11:18;;;;;;;12.20;3.33;;;14.10;1.00;;;;;;5094432;28;20526;-72
2022/09/02 06:13:45;;;;;;;4.40;3.00;;;14.10;1.00;;;;;;5094280;28;20483;-71
2022/09/02 06:16:16;;;;;;;12.13;3.60;;;14.20;1.00;;;;;;5095250;28;20501;-72
2022/09/02 06:18:42;;;;;;;8.00;3.43;;;14.10;1.00;;;;;;5094247;28;20443;-73
2022/09/02 06:21:09;;;;;;;15.57;3.73;;;14.30;1.00;;;;;;5093971;28;20452;-72
2022/09/02 06:23:38;;;;;;;21.07;5.30;;;14.50;1.00;;;;;;5094656;28;20494;-72
2022/09/02 06:26:06;;;;;;;12.53;3.77;;;14.60;99.90;;;;;;5094673;28;21040;-72
2022/09/02 06:28:32;;;;;;;10.80;3.67;;;14.70;99.90;;;;;;5094198;28;20455;-72
2022/09/02 06:30:59;;;;;;;4.97;3.10;;;14.80;99.90;;;;;;5093348;28;20448;-72
2022/09/02 06:33:27;;;;;;;6.27;3.53;;;14.80;99.90;;;;;;5093998;28;20462;-72
2022/09/02 06:35:54;;;;;;;28.07;4.87;;;14.80;99.90;;;;;;5093811;28;20815;-72
2022/09/02 06:38:21;;;;;;;33.30;6.67;;;14.80;99.90;;;;;;5093954;28;20403;-73
2022/09/02 06:40:49;;;;;;;5.80;3.00;;;14.80;99.90;;;;;;5093504;28;20447;-72
2022/09/02 06:43:16;;;;;;;6.67;2.73;;;14.80;99.90;;;;;;5093353;28;20487;-72
2022/09/02 06:45:44;;;;;;;13.23;4.43;;;14.80;99.90;;;;;;5093118;28;20455;-72
2022/09/02 06:48:12;;;;;;;6.97;3.67;;;14.80;99.90;;;;;;5093794;28;20440;-72
2022/09/02 06:50:41;;;;;;;3.77;3.00;;;14.90;1.00;;;;;;5093630;28;20450;-72
2022/09/02 06:53:10;;;;;;;5.73;3.30;;;15.00;99.90;;;;;;5093425;28;20475;-72
2022/09/02 06:55:38;;;;;;;4.63;2.90;;;15.00;99.90;;;;;;5093410;28;21027;-71
2022/09/02 06:58:05;;;;;;;8.20;2.97;;;15.00;99.90;;;;;;5093584;28;20443;-71
2022/09/02 07:00:34;;;;;;;15.30;3.90;;;15.10;99.90;;;;;;5093160;28;20447;-72
2022/09/02 07:05:46;;;;;;;51.10;6.03;;;14.90;99.90;;;;;;5093987;28;20403;-72
2022/09/02 07:08:13;;;;;;;12.83;3.60;;;14.90;99.90;;;;;;5094347;28;20447;-73
2022/09/02 07:10:41;;;;;;;14.60;4.10;;;14.90;99.90;;;;;;5094383;28;20444;-72
2022/09/02 07:13:08;;;;;;;45.47;13.00;;;14.90;99.90;;;;;;5094692;28;20471;-72
2022/09/02 07:15:35;;;;;;;42.57;9.33;;;14.90;99.90;;;;;;5094601;28;20455;-71
2022/09/02 07:18:03;;;;;;;37.97;6.80;;;15.00;1.00;;;;;;5093459;28;20443;-72
2022/09/02 07:20:30;;;;;;;20.80;6.40;;;15.00;1.00;;;;;;5093236;28;20542;-72
2022/09/02 07:22:58;;;;;;;15.07;4.00;;;15.30;1.00;;;;;;5093273;28;20439;-72
2022/09/02 07:25:25;;;;;;;10.67;4.70;;;15.20;99.90;;;;;;5093635;28;20507;-72
2022/09/02 07:27:53;;;;;;;6.63;3.47;;;15.30;99.90;;;;;;5093003;28;20439;-71
2022/09/02 07:30:20;;;;;;;4.57;2.97;;;15.50;99.90;;;;;;5093263;28;20443;-72
2022/09/02 07:32:48;;;;;;;9.70;3.20;;;15.60;99.90;;;;;;5092750;28;20444;-71
2022/09/02 07:35:15;;;;;;;3.90;3.10;;;15.80;93.00;;;;;;5092799;28;20444;-72
2022/09/02 07:37:42;;;;;;;4.10;3.57;;;16.00;1.00;;;;;;5092868;28;20448;-72
2022/09/02 07:40:12;;;;;;;7.00;3.93;;;16.20;1.00;;;;;;5092709;28;20954;-73
2022/09/02 07:42:39;;;;;;;3.57;3.27;;;16.50;99.90;;;;;;5092703;28;20432;-73
2022/09/02 07:45:07;;;;;;;4.10;2.10;;;16.60;99.90;;;;;;5096633;28;20490;-73
2022/09/02 07:47:34;;;;;;;5.33;2.50;;;16.70;1.00;;;;;;5096741;28;20462;-72
2022/09/02 07:50:01;;;;;;;32.50;4.90;;;16.80;99.90;;;;;;5096769;28;20448;-72
2022/09/02 07:52:28;;;;;;;3.13;2.73;;;16.90;99.90;;;;;;5096738;28;20769;-73
2022/09/02 07:54:55;;;;;;;5.37;2.67;;;16.90;99.90;;;;;;5096584;28;20459;-73
2022/09/02 07:57:23;;;;;;;4.00;2.67;;;17.00;20.00;;;;;;5097136;28;20501;-73
2022/09/02 07:59:50;;;;;;;7.37;2.33;;;16.80;99.90;;;;;;5096946;28;20873;-73
2022/09/02 08:02:17;;;;;;;3.20;2.20;;;16.70;99.90;;;;;;5096888;28;20958;-73
2022/09/02 08:04:45;;;;;;;6.40;2.63;;;16.60;99.90;;;;;;5096285;28;20849;-72
2022/09/02 08:07:12;;;;;;;3.87;3.17;;;16.60;99.90;;;;;;5096597;28;20454;-72
2022/09/02 08:09:39;;;;;;;4.83;2.97;;;16.40;1.00;;;;;;5096108;28;20951;-72
2022/09/02 08:12:06;;;;;;;2.67;2.40;;;16.50;1.00;;;;;;5096289;28;20451;-71
2022/09/02 08:14:34;;;;;;;11.50;3.50;;;16.50;99.90;;;;;;5096122;28;20460;-72
2022/09/02 08:17:02;;;;;;;7.90;4.03;;;16.70;99.90;;;;;;5096660;28;20447;-72
2022/09/02 08:19:28;;;;;;;6.40;3.70;;;16.90;99.90;;;;;;5096175;28;20818;-72
2022/09/02 08:21:55;;;;;;;13.63;4.47;;;17.10;1.00;;;;;;5096136;28;20444;-71
2022/09/02 08:24:22;;;;;;;10.70;4.20;;;17.20;99.90;;;;;;5096170;28;20851;-72
2022/09/02 08:26:49;;;;;;;9.07;3.90;;;17.40;99.90;;;;;;5096442;28;20440;-73
2022/09/02 08:29:16;;;;;;;11.23;3.80;;;17.60;99.90;;;;;;5095964;28;20490;-72
2022/09/02 08:31:44;;;;;;;4.30;3.20;;;17.60;99.90;;;;;;5096103;28;20451;-72
2022/09/02 08:34:10;;;;;;;2.67;2.47;;;17.70;1.00;;;;;;5095850;28;20475;-72
2022/09/02 08:36:38;;;;;;;6.33;3.10;;;17.70;1.00;;;;;;5095949;28;20514;-72
2022/09/02 08:39:05;;;;;;;2.10;2.00;;;17.70;99.90;;;;;;5095653;28;21035;-72
2022/09/02 08:41:41;;;;;;;4.00;2.13;;;17.80;99.90;;;;;;5096122;28;20511;-73
2022/09/02 08:44:11;;;;;;;3.93;2.33;;;17.80;1.00;;;;;;5096120;28;20486;-72
2022/09/02 08:46:38;;;;;;;6.27;2.93;;;17.80;99.90;;;;;;5095973;28;20432;-72
2022/09/02 08:49:11;;;;;;;5.93;2.30;;;17.90;99.90;;;;;;5095849;28;20443;-73
2022/09/02 08:51:45;;;;;;;5.80;2.37;;;18.00;1.00;;;;;;5095565;28;20432;-72
2022/09/02 08:54:20;;;;;;;5.93;2.50;;;18.10;99.90;;;;;;5094963;28;20498;-72
2022/09/02 08:56:48;;;;;;;2.50;2.30;;;18.20;1.00;;;;;;5095251;28;20430;-72
2022/09/02 08:59:15;;;;;;;2.53;2.33;;;18.30;1.00;;;;;;5095494;28;20455;-72
2022/09/02 09:01:47;;;;;;;5.10;2.80;;;18.40;99.90;;;;;;5095614;28;20835;-73
2022/09/02 09:04:26;;;;;;;6.83;4.40;;;18.40;99.90;;;;;;5095570;28;20866;-73
2022/09/02 09:07:20;;;;;;;3.33;2.60;;;18.50;99.90;;;;;;5095481;28;20936;-73
2022/09/02 09:10:05;;;;;;;6.27;3.10;;;18.60;1.00;;;;;;5095366;28;20880;-72
2022/09/02 09:12:49;;;;;;;2.53;2.13;;;18.70;99.90;;;;;;5095240;28;20431;-72
2022/09/02 09:15:22;;;;;;;3.00;1.80;;;18.80;1.00;;;;;;5095135;28;20440;-72
2022/09/02 09:17:56;;;;;;;1.80;1.70;;;18.80;1.00;;;;;;5095239;28;20459;-72
2022/09/02 09:20:29;;;;;;;8.97;1.63;;;18.90;99.90;;;;;;5095272;28;20799;-72
2022/09/02 09:22:57;;;;;;;4.80;1.60;;;19.10;99.90;;;;;;5095095;28;20481;-73
2022/09/02 09:25:28;;;;;;;5.97;2.30;;;18.90;99.90;;;;;;5094598;28;20998;-72
2022/09/02 09:27:55;;;;;;;4.40;3.50;;;19.00;1.00;;;;;;5094438;28;20481;-72
2022/09/02 09:30:22;;;;;;;6.40;4.43;;;19.00;99.90;;;;;;5094463;28;20448;-72
2022/09/02 09:32:53;;;;;;;2.37;1.90;;;18.40;99.90;;;;;;5094706;28;20794;-72
2022/09/02 09:35:21;;;;;;;4.40;2.80;;;19.20;99.90;;;;;;5094890;28;20829;-72
2022/09/02 09:37:50;;;;;;;4.53;2.00;;;19.30;99.90;;;;;;5094798;28;20440;-72
2022/09/02 09:40:27;;;;;;;4.87;2.80;;;19.40;99.90;;;;;;5094616;28;20812;-72
2022/09/02 09:42:56;;;;;;;2.20;1.00;;;19.60;1.00;;;;;;5094838;28;20451;-71
2022/09/02 09:45:30;;;;;;;1.27;1.17;;;19.50;1.00;;;;;;5094454;28;20502;-73
2022/09/02 09:48:16;;;;;;;5.77;3.27;;;19.50;1.00;;;;;;5094491;28;20436;-73
2022/09/02 09:50:44;;;;;;;2.80;2.50;;;19.60;99.90;;;;;;5094703;28;20478;-73
2022/09/02 09:53:19;;;;;;;3.77;3.00;;;19.70;99.90;;;;;;5095042;28;20464;-71
2022/09/02 09:55:52;;;;;;;3.33;3.03;;;19.80;99.90;;;;;;5094577;28;20481;-72
2022/09/02 09:58:20;;;;;;;3.23;2.93;;;19.90;99.90;;;;;;5094153;28;20447;-72
2022/09/02 10:00:47;;;;;;;3.63;1.87;;;20.00;99.90;;;;;;5094310;28;20475;-71
2022/09/02 10:05:43;;;;;;;2.03;1.60;;;20.00;1.00;;;;;;5146019;27;20486;-80
2022/09/02 10:08:21;;;;;;;2.23;1.50;;;20.00;1.00;;;;;;5150063;27;20435;-81
2022/09/02 10:10:58;;;;;;;2.00;1.60;;;20.10;1.00;;;;;;5149780;27;20793;-81
2022/09/02 10:13:28;;;;;;;2.60;2.03;;;20.10;99.90;;;;;;5153130;27;20426;-80
2022/09/02 10:16:21;;;;;;;6.23;1.80;;;20.30;99.90;;;;;;5146259;27;20451;-81
2022/09/02 10:18:53;;;;;;;3.20;1.90;;;20.40;1.00;;;;;;5149886;27;20419;-81
2022/09/02 10:21:39;;;;;;;5.90;2.10;;;20.50;1.00;;;;;;5151111;27;20422;-81
2022/09/02 10:24:21;;;;;;;1.80;1.70;;;20.50;1.00;;;;;;5149100;27;20470;-80
2022/09/02 10:26:54;;;;;;;2.50;1.57;;;20.60;1.40;;;;;;5146747;27;20438;-79
2022/09/02 10:29:42;;;;;;;5.40;2.57;;;20.40;1.00;;;;;;5148893;27;20848;-81
2022/09/02 10:32:24;;;;;;;1.70;1.60;;;20.50;1.00;;;;;;5148568;27;20509;-81
2022/09/02 10:35:03;;;;;;;2.13;1.90;;;20.70;1.00;;;;;;5147866;27;20483;-82
2022/09/02 10:38:00;;;;;;;2.10;1.90;;;20.80;1.00;;;;;;5148924;27;20493;-81
2022/09/02 10:40:36;;;;;;;1.70;1.60;;;20.70;1.00;;;;;;5150802;27;20477;-80
2022/09/02 10:43:09;;;;;;;4.70;1.77;;;20.70;1.00;;;;;;5148900;27;20428;-79
2022/09/02 10:45:43;;;;;;;1.77;1.63;;;20.80;1.00;;;;;;5147951;27;20481;-80
2022/09/02 10:48:33;;;;;;;1.87;1.77;;;21.00;1.00;;;;;;5146995;27;20450;-80
2022/09/02 10:51:06;;;;;;;6.83;1.67;;;21.10;1.00;;;;;;5140215;27;20502;-79
2022/09/02 10:53:50;;;;;;;5.27;2.00;;;21.10;1.00;;;;;;5148226;27;20479;-80
2022/09/02 10:56:28;;;;;;;2.47;1.70;;;21.20;1.00;;;;;;5148008;27;20414;-81
2022/09/02 11:02:08;;;;;;;1.50;1.40;;;20.70;1.00;;;;;;5144336;27;20423;-79
2022/09/02 11:04:59;;;;;;;1.83;1.73;;;20.80;1.00;;;;;;5146549;27;20482;-81
2022/09/02 11:07:33;;;;;;;7.27;2.80;;;21.00;1.00;;;;;;5148201;27;20413;-82
2022/09/02 11:10:10;;;;;;;4.03;2.30;;;21.20;1.00;;;;;;5151129;27;20521;-81
2022/09/02 11:12:48;;;;;;;3.40;1.93;;;21.30;1.00;;;;;;5151839;27;20461;-81
2022/09/02 11:15:21;;;;;;;2.07;1.30;;;21.40;1.00;;;;;;5156729;27;20477;-81
2022/09/02 11:18:03;;;;;;;2.00;1.70;;;21.80;1.00;;;;;;5154040;27;20430;-79
2022/09/02 11:20:37;;;;;;;2.53;2.33;;;21.40;1.00;;;;;;5149847;27;20446;-81
2022/09/02 11:23:20;;;;;;;3.23;1.83;;;21.40;1.00;;;;;;5149045;27;20485;-81
2022/09/02 11:26:00;;;;;;;5.53;2.50;;;21.20;1.00;;;;;;5149356;28;20530;-82
2022/09/02 11:32:13;;;;;;;4.53;3.00;;;20.80;1.00;;;;;;5104229;28;20480;-81
2022/09/02 11:34:48;;;;;;;1.97;1.87;;;20.50;1.00;;;;;;5120774;27;20969;-80
2022/09/02 11:37:28;;;;;;;5.63;3.93;;;20.60;1.00;;;;;;5144544;28;20438;-81
2022/09/02 11:39:59;;;;;;;2.50;2.10;;;21.00;1.00;;;;;;5142946;28;20438;-79
2022/09/02 11:42:49;;;;;;;3.07;1.70;;;20.60;1.00;;;;;;5145491;27;20439;-81
2022/09/02 11:45:43;;;;;;;60.83;7.60;;;20.80;1.00;;;;;;5145312;28;20506;-80
2022/09/02 11:48:56;;;;;;;10.97;3.47;;;20.90;1.00;;;;;;5148037;27;20473;-80
2022/09/02 11:51:59;;;;;;;1.97;1.60;;;21.00;1.00;;;;;;5146350;28;20488;-80
2022/09/02 11:54:31;;;;;;;3.20;2.87;;;21.10;1.00;;;;;;5147580;27;20441;-81
2022/09/02 11:57:01;;;;;;;4.57;4.03;;;20.90;1.00;;;;;;5144819;28;20432;-80
2022/09/02 12:00:02;;;;;;;2.80;2.60;;;20.70;1.00;;;;;;5146824;28;20452;-82
2022/09/02 12:02:36;;;;;;;2.43;2.20;;;20.50;1.00;;;;;;5141786;27;20461;-81
2022/09/02 12:05:51;;;;;;;1.97;1.80;;;20.40;1.00;;;;;;5142091;27;20481;-80
2022/09/02 12:09:10;;;;;;;2.60;2.20;;;20.50;1.00;;;;;;5100018;28;20442;-81
2022/09/02 12:11:53;;;;;;;2.83;2.63;;;20.80;1.00;;;;;;5145481;27;20430;-81
2022/09/02 12:15:06;;;;;;;2.23;2.13;;;21.30;1.00;;;;;;5147208;28;20465;-80
2022/09/02 12:18:08;;;;;;;3.80;2.60;;;21.30;1.00;;;;;;5148077;27;20430;-81
2022/09/02 12:21:10;;;;;;;3.27;2.00;;;21.30;1.00;;;;;;5143012;28;20441;-82
2022/09/02 12:24:09;;;;;;;2.97;2.40;;;21.40;1.00;;;;;;5149631;28;20465;-80
2022/09/02 12:27:06;;;;;;;2.97;1.93;;;21.30;1.00;;;;;;5150876;27;20470;-81
2022/09/02 12:29:34;;;;;;;2.80;1.93;;;21.10;1.00;;;;;;5147737;27;20414;-81
2022/09/02 12:32:05;;;;;;;2.50;1.87;;;20.90;1.00;;;;;;5148911;27;20448;-81
2022/09/02 12:34:56;;;;;;;2.20;1.70;;;20.90;1.00;;;;;;5149595;27;20474;-79
2022/09/02 12:38:21;;;;;;;2.77;1.73;;;20.90;1.00;;;;;;5151718;27;20516;-81
2022/09/02 12:40:58;;;;;;;1.73;1.53;;;20.80;1.00;;;;;;5149537;27;20445;-82
2022/09/02 12:43:31;;;;;;;1.63;1.40;;;21.60;1.00;;;;;;5151076;27;20430;-80
2022/09/02 12:46:07;;;;;;;1.63;1.53;;;20.80;1.00;;;;;;5150490;27;20462;-80
2022/09/02 12:48:43;;;;;;;3.00;2.00;;;21.10;1.00;;;;;;5150701;27;20433;-81
2022/09/02 12:51:14;;;;;;;2.67;2.47;;;21.30;1.00;;;;;;5149423;27;20449;-81
2022/09/02 12:53:43;;;;;;;6.00;2.03;;;21.50;1.00;;;;;;5148134;27;20531;-81
2022/09/02 12:56:22;;;;;;;2.83;1.70;;;21.60;1.00;;;;;;5149804;27;20446;-81
2022/09/02 12:58:55;;;;;;;7.13;2.07;;;21.50;1.00;;;;;;5150217;27;20419;-81
2022/09/02 13:01:37;;;;;;;2.17;1.73;;;21.40;1.00;;;;;;5149377;27;20533;-80
2022/09/02 13:04:26;;;;;;;3.03;1.93;;;21.30;1.00;;;;;;5150119;27;20486;-82
2022/09/02 13:07:34;;;;;;;5.27;2.13;;;21.30;1.00;;;;;;5149555;27;20493;-81
2022/09/02 13:10:32;;;;;;;3.47;3.00;;;21.80;1.00;;;;;;5150749;27;20422;-81
2022/09/02 13:13:26;;;;;;;3.17;2.40;;;21.50;1.00;;;;;;5150403;27;20442;-81
2022/09/02 13:16:16;;;;;;;10.30;7.10;;;21.30;1.00;;;;;;5151385;27;20450;-81
2022/09/02 13:19:05;;;;;;;4.57;2.67;;;21.10;1.00;;;;;;5150192;27;20460;-81
2022/09/02 13:22:14;;;;;;;2.00;1.90;;;21.00;1.00;;;;;;5157151;27;20422;-80
2022/09/02 13:25:11;;;;;;;3.10;2.67;;;20.90;1.00;;;;;;5150110;27;20453;-80
2022/09/02 13:28:04;;;;;;;4.93;2.23;;;20.90;1.00;;;;;;5147953;27;20449;-81
2022/09/02 13:30:52;;;;;;;4.23;2.53;;;20.80;1.00;;;;;;5148395;27;20442;-81